Leota, Minnesota
Current Conditions -  °F | °C
As of 10:13 AM on Wednesday 28 Jan 2015 (Local Time) from KDVP Reporting Station
Haze Haze  
Wind Chill: 21°   Ceiling: 600
Heat Index: 32°   Visibility: 2.5mi
Dew Point: 31°   Wind: 17mph
Humidity: 96%   Direction: 160°SSE
Pressure: 29.8"   Gusts: NA
Location:  43.83°N, 96.01°W
Report Text: KDVP 281613Z AUTO 16015KT 2 1/2SM BR OVC006 00/M01 A2980 RMK AO2 T10011007
Loading
Personal Weather Stations






























Interactive Weather Map New forecast layout! Learn more

10-Day Weather Forecast

Advertisements
Track Severe Weather on mobile